createdAt,value
2023-04-28T00:00:07.704Z,29.17
2023-04-28T00:02:34.685Z,28.70
2023-04-28T00:05:01.731Z,27.20
2023-04-28T00:07:28.688Z,27.70
2023-04-28T00:09:57.041Z,26.10
2023-04-28T00:12:24.190Z,29.17
2023-04-28T00:14:51.215Z,27.37
2023-04-28T00:17:18.070Z,25.90
2023-04-28T00:19:45.266Z,28.23
2023-04-28T00:22:12.263Z,30.70
2023-04-28T00:24:39.112Z,25.13
2023-04-28T00:27:06.054Z,27.97
2023-04-28T00:29:32.939Z,26.33
2023-04-28T00:31:59.888Z,27.60
2023-04-28T00:34:26.806Z,25.90
2023-04-28T00:36:53.730Z,27.40
2023-04-28T00:39:22.921Z,27.40
2023-04-28T00:41:49.793Z,30.77
2023-04-28T00:44:16.931Z,26.17
2023-04-28T00:46:43.950Z,30.47
2023-04-28T00:49:11.155Z,25.73
2023-04-28T00:51:38.002Z,30.80
2023-04-28T00:54:06.278Z,30.30
2023-04-28T00:56:33.746Z,24.83
2023-04-28T00:59:00.728Z,26.80
2023-04-28T01:01:27.655Z,31.47
2023-04-28T01:03:54.719Z,26.97
2023-04-28T01:06:22.650Z,27.50
2023-04-28T01:08:51.016Z,25.60
2023-04-28T01:11:17.953Z,29.03
2023-04-28T01:13:44.854Z,31.70
2023-04-28T01:16:11.792Z,29.80
2023-04-28T01:18:39.392Z,26.03
2023-04-28T01:21:06.267Z,27.40
2023-04-28T01:23:33.103Z,29.43
2023-04-28T01:25:59.989Z,28.13
2023-04-28T01:28:26.919Z,30.23
2023-04-28T01:30:53.824Z,31.40
2023-04-28T01:33:20.668Z,29.93
2023-04-28T01:35:47.556Z,31.30
2023-04-28T01:38:14.406Z,32.07
2023-04-28T01:40:41.311Z,28.20
2023-04-28T01:43:08.187Z,32.27
2023-04-28T01:45:35.162Z,31.57
2023-04-28T01:48:02.063Z,31.17
2023-04-28T01:50:29.012Z,35.67
2023-04-28T01:52:55.904Z,31.93
2023-04-28T01:55:22.731Z,35.30
2023-04-28T01:57:50.180Z,38.20
2023-04-28T02:00:17.398Z,33.57
2023-04-28T02:02:44.327Z,31.23
2023-04-28T02:05:12.201Z,33.47
2023-04-28T02:07:39.083Z,32.90
2023-04-28T02:10:06.758Z,34.57
2023-04-28T02:12:34.024Z,34.60
2023-04-28T02:15:01.148Z,31.60
2023-04-28T02:17:30.712Z,35.63
2023-04-28T02:19:57.720Z,31.57
2023-04-28T02:22:24.902Z,31.53
2023-04-28T02:24:51.753Z,33.37
2023-04-28T02:27:18.712Z,34.33
2023-04-28T02:29:45.577Z,32.50
2023-04-28T02:32:12.437Z,31.13
2023-04-28T02:34:39.321Z,36.53
2023-04-28T02:37:06.223Z,28.43
2023-04-28T02:39:33.441Z,31.50
2023-04-28T02:42:00.534Z,34.17
2023-04-28T02:44:27.436Z,39.13
2023-04-28T02:46:54.389Z,33.70
2023-04-28T02:49:21.500Z,38.57
2023-04-28T02:51:48.366Z,33.60
2023-04-28T02:54:15.575Z,33.70
2023-04-28T02:56:42.850Z,36.47
2023-04-28T02:59:09.689Z,36.07
2023-04-28T03:01:36.592Z,35.97
2023-04-28T03:04:03.804Z,36.37
2023-04-28T03:06:31.802Z,39.10
2023-04-28T03:08:58.665Z,33.93
2023-04-28T03:11:25.726Z,35.30
2023-04-28T03:13:52.555Z,37.07
2023-04-28T03:16:19.459Z,37.13
2023-04-28T03:18:46.376Z,31.93
2023-04-28T03:21:13.277Z,34.47
2023-04-28T03:23:40.135Z,34.77
2023-04-28T03:26:07.151Z,39.80
2023-04-28T03:28:34.018Z,34.43
2023-04-28T03:31:01.010Z,39.00
2023-04-28T03:33:27.897Z,39.43
2023-04-28T03:35:54.888Z,35.57
2023-04-28T03:38:22.643Z,44.13
2023-04-28T03:40:49.582Z,38.67
2023-04-28T03:43:17.232Z,40.03
2023-04-28T03:45:44.128Z,38.03
2023-04-28T03:48:11.147Z,37.23
2023-04-28T03:50:38.115Z,43.77
2023-04-28T03:53:05.133Z,41.23
2023-04-28T03:55:32.023Z,45.80
2023-04-28T03:57:58.875Z,39.47
2023-04-28T04:00:25.988Z,45.73
2023-04-28T04:02:53.260Z,45.47
2023-04-28T04:05:20.406Z,44.23
2023-04-28T04:07:47.533Z,50.70
2023-04-28T04:10:14.430Z,50.50
2023-04-28T04:12:41.331Z,43.23
2023-04-28T04:15:08.915Z,50.80
2023-04-28T04:17:35.822Z,50.93
2023-04-28T04:20:02.694Z,50.87
2023-04-28T04:22:29.674Z,50.17
2023-04-28T04:24:56.688Z,49.27
2023-04-28T04:27:23.592Z,57.43
2023-04-28T04:29:50.587Z,59.13
2023-04-28T04:32:17.483Z,53.93
2023-04-28T04:34:44.992Z,55.43
2023-04-28T04:37:11.862Z,52.87
2023-04-28T04:39:38.724Z,56.00
2023-04-28T04:42:22.632Z,61.30
2023-04-28T04:44:50.618Z,56.80
2023-04-28T04:47:17.538Z,60.47
2023-04-28T04:49:44.454Z,60.33
2023-04-28T04:52:11.344Z,56.07
2023-04-28T04:54:38.276Z,54.83
2023-04-28T04:57:07.098Z,66.97
2023-04-28T04:59:33.936Z,62.57
2023-04-28T05:02:00.951Z,59.50
2023-04-28T05:04:28.387Z,64.77
2023-04-28T05:06:55.576Z,60.63
2023-04-28T05:09:23.417Z,67.73
2023-04-28T05:11:50.510Z,67.83
2023-04-28T05:14:18.012Z,64.20
2023-04-28T05:16:45.242Z,65.13
2023-04-28T05:19:12.123Z,66.83
2023-04-28T05:21:38.962Z,65.37
2023-04-28T05:24:06.293Z,65.90
2023-04-28T05:26:33.099Z,69.70
2023-04-28T05:29:00.021Z,69.40
2023-04-28T05:31:26.923Z,63.53
2023-04-28T05:33:53.835Z,71.20
2023-04-28T05:36:21.079Z,78.10
2023-04-28T05:38:47.985Z,81.17
2023-04-28T05:41:14.870Z,74.53
2023-04-28T05:43:41.727Z,77.17
2023-04-28T05:46:18.240Z,68.40
2023-04-28T05:48:49.154Z,67.97
2023-04-28T05:51:16.012Z,82.50
2023-04-28T05:53:44.083Z,68.80
2023-04-28T05:56:10.969Z,67.30
2023-04-28T05:58:38.568Z,70.20
2023-04-28T06:01:06.525Z,68.60
2023-04-28T06:03:33.754Z,72.87
2023-04-28T06:06:00.921Z,60.70
2023-04-28T06:08:27.811Z,62.47
2023-04-28T06:10:54.720Z,64.73
2023-04-28T06:13:21.795Z,58.07
2023-04-28T06:15:48.648Z,48.40
2023-04-28T06:18:16.503Z,48.53
2023-04-28T06:20:43.346Z,41.23
2023-04-28T06:23:11.231Z,37.43
2023-04-28T06:25:38.338Z,31.33
2023-04-28T06:28:06.457Z,30.30
2023-04-28T06:30:33.404Z,29.07
2023-04-28T06:33:00.503Z,30.03
2023-04-28T06:35:28.106Z,27.50
2023-04-28T06:37:54.948Z,22.90
2023-04-28T06:40:21.941Z,23.60
2023-04-28T06:42:49.021Z,28.83
2023-04-28T06:45:16.069Z,25.03
2023-04-28T06:47:43.417Z,22.73
2023-04-28T06:50:11.109Z,23.77
2023-04-28T06:52:41.112Z,19.80
2023-04-28T06:55:09.655Z,20.00
2023-04-28T06:57:37.881Z,22.07
2023-04-28T07:00:05.375Z,15.17
2023-04-28T07:02:32.535Z,15.03
2023-04-28T07:04:59.516Z,19.63
2023-04-28T07:07:27.405Z,15.87
2023-04-28T07:09:54.365Z,14.30
2023-04-28T07:12:21.894Z,13.53
2023-04-28T07:14:49.042Z,12.77
2023-04-28T07:17:16.194Z,10.53
2023-04-28T07:19:43.126Z,9.13
2023-04-28T07:22:10.031Z,10.03
2023-04-28T07:24:37.497Z,7.67
2023-04-28T07:27:04.487Z,10.53
2023-04-28T07:29:34.267Z,14.00
2023-04-28T07:32:06.863Z,7.27
2023-04-28T07:34:35.920Z,9.70
2023-04-28T07:37:03.607Z,14.63
2023-04-28T07:39:36.837Z,12.10
2023-04-28T07:42:03.986Z,9.70
2023-04-28T07:44:32.768Z,13.53
2023-04-28T07:47:00.208Z,9.97
2023-04-28T07:49:30.252Z,6.53
2023-04-28T07:51:57.332Z,8.37
2023-04-28T07:54:24.673Z,5.93
2023-04-28T07:56:51.738Z,4.27
2023-04-28T07:59:19.865Z,4.13
2023-04-28T08:01:46.810Z,5.13
2023-04-28T08:04:14.109Z,3.67
2023-04-28T08:06:41.717Z,2.93
2023-04-28T08:09:08.763Z,8.07
2023-04-28T08:11:35.682Z,4.37
2023-04-28T08:14:03.512Z,9.37
2023-04-28T08:16:31.015Z,7.80
2023-04-28T08:18:58.341Z,8.13
2023-04-28T08:21:25.651Z,7.33
2023-04-28T08:23:52.494Z,5.33
2023-04-28T08:26:19.388Z,7.43
2023-04-28T08:28:46.260Z,11.93
2023-04-28T08:31:14.184Z,12.13
2023-04-28T08:33:44.528Z,12.57
2023-04-28T08:36:15.143Z,10.00
2023-04-28T08:38:42.228Z,8.23
2023-04-28T08:41:09.216Z,10.23
2023-04-28T08:43:36.581Z,8.90
2023-04-28T08:46:06.537Z,6.07
2023-04-28T08:48:40.285Z,4.83
2023-04-28T08:51:07.428Z,6.80
2023-04-28T08:53:57.268Z,6.70
2023-04-28T08:56:25.146Z,6.00
2023-04-28T08:58:52.290Z,8.07
2023-04-28T09:01:19.234Z,4.87
2023-04-28T09:03:49.273Z,5.67
2023-04-28T09:06:16.419Z,5.13
2023-04-28T09:08:43.272Z,6.57
2023-04-28T09:11:11.270Z,6.83
2023-04-28T09:13:40.170Z,6.37
2023-04-28T09:16:07.406Z,4.80
2023-04-28T09:18:34.429Z,4.37
2023-04-28T09:21:05.514Z,5.20
2023-04-28T09:23:33.654Z,8.83
2023-04-28T09:26:04.660Z,5.67
2023-04-28T09:28:35.160Z,4.10
2023-04-28T09:31:03.949Z,5.67
2023-04-28T09:33:30.927Z,10.40
2023-04-28T09:35:57.836Z,7.00
2023-04-28T09:38:25.326Z,4.00
2023-04-28T09:40:59.741Z,4.03
2023-04-28T09:43:36.298Z,3.53
2023-04-28T09:46:04.498Z,3.27
2023-04-28T09:48:38.154Z,3.50
2023-04-28T09:51:07.820Z,4.30
2023-04-28T09:53:34.781Z,4.83
2023-04-28T09:56:03.532Z,5.33
2023-04-28T09:58:32.280Z,6.40
2023-04-28T10:01:00.676Z,8.23
2023-04-28T10:03:29.807Z,4.40
2023-04-28T10:05:58.458Z,6.50
2023-04-28T10:08:27.194Z,5.77
2023-04-28T10:10:54.869Z,7.67
2023-04-28T10:13:22.849Z,11.30
2023-04-28T10:15:55.693Z,6.57
2023-04-28T10:18:24.515Z,5.50
2023-04-28T10:20:58.251Z,5.27
2023-04-28T10:23:50.238Z,6.13
2023-04-28T10:26:19.873Z,7.00
2023-04-28T10:28:48.410Z,10.20
2023-04-28T10:31:16.652Z,10.70
2023-04-28T10:33:43.940Z,11.00
2023-04-28T10:36:11.137Z,9.23
2023-04-28T10:39:16.928Z,14.80
2023-04-28T10:41:44.969Z,8.33
2023-04-28T10:44:30.589Z,9.32
2023-04-28T10:47:10.092Z,11.43
2023-04-28T10:50:04.194Z,8.53
2023-04-28T10:52:40.872Z,8.10
2023-04-28T10:58:16.585Z,9.55
2023-04-28T11:00:53.604Z,9.10
2023-04-28T11:03:54.212Z,4.97
2023-04-28T11:09:04.290Z,5.35
2023-04-28T11:11:32.786Z,28.83
2023-04-28T11:14:22.679Z,37.28
2023-04-28T11:16:59.695Z,31.92
2023-04-28T11:21:59.193Z,30.65
2023-04-28T11:24:27.352Z,21.02
2023-04-28T11:26:54.312Z,11.88
2023-04-28T11:29:43.524Z,3.80
2023-04-28T11:32:10.916Z,7.65
2023-04-28T11:34:38.053Z,5.10
2023-04-28T11:37:07.245Z,7.13
2023-04-28T11:39:34.428Z,5.38
2023-04-28T11:42:10.136Z,29.88
2023-04-28T11:44:37.060Z,50.10
2023-04-28T11:47:04.658Z,53.75
2023-04-28T11:49:47.726Z,48.53
2023-04-28T11:52:14.657Z,48.70
2023-04-28T11:54:44.285Z,51.83
2023-04-28T11:57:21.618Z,31.42
2023-04-28T11:59:49.715Z,26.48
2023-04-28T12:02:19.179Z,14.70
2023-04-28T12:04:46.145Z,35.88
2023-04-28T12:07:19.854Z,21.90
2023-04-28T12:10:10.572Z,25.45
2023-04-28T12:15:08.852Z,21.08
2023-04-28T12:17:39.786Z,28.98
2023-04-28T12:20:08.617Z,25.23
2023-04-28T12:22:53.678Z,21.83
2023-04-28T12:25:21.692Z,15.60
2023-04-28T12:28:08.488Z,15.95
2023-04-28T12:30:42.152Z,20.10
2023-04-28T12:33:25.352Z,15.05
2023-04-28T12:35:55.186Z,15.60
2023-04-28T12:38:25.855Z,16.15
2023-04-28T12:40:53.932Z,17.00
2023-04-28T12:43:23.271Z,14.80
2023-04-28T12:45:51.077Z,12.98
2023-04-28T12:48:18.072Z,9.57
2023-04-28T12:50:45.833Z,16.95
2023-04-28T12:53:12.887Z,9.98
2023-04-28T12:55:40.867Z,15.40
2023-04-28T12:58:09.824Z,10.38
2023-04-28T13:00:37.699Z,13.55
2023-04-28T13:03:04.688Z,15.13
2023-04-28T13:05:32.669Z,20.48
2023-04-28T13:07:59.728Z,7.03
2023-04-28T13:10:26.763Z,8.07
2023-04-28T13:12:53.585Z,6.82
2023-04-28T13:15:20.679Z,6.15
2023-04-28T13:17:49.209Z,7.75
2023-04-28T13:20:18.175Z,8.88
2023-04-28T13:22:45.289Z,12.82
2023-04-28T13:25:12.126Z,8.40
2023-04-28T13:27:43.307Z,8.48
2023-04-28T13:30:11.457Z,6.97
2023-04-28T13:32:38.323Z,20.60
2023-04-28T13:35:05.711Z,32.08
2023-04-28T13:37:33.185Z,38.65
2023-04-28T13:40:04.349Z,52.88
2023-04-28T13:42:31.420Z,38.15
2023-04-28T13:44:59.558Z,43.78
2023-04-28T13:47:26.804Z,50.75
2023-04-28T13:49:53.744Z,43.17
2023-04-28T13:52:22.565Z,41.78
2023-04-28T13:54:49.802Z,26.65
2023-04-28T13:57:25.348Z,24.17
2023-04-28T13:59:52.213Z,12.27
2023-04-28T14:02:20.415Z,24.48
2023-04-28T14:04:49.352Z,21.73
2023-04-28T14:10:58.277Z,15.93
2023-04-28T14:16:48.769Z,18.15
2023-04-28T14:19:18.703Z,15.85
2023-04-28T14:21:50.378Z,6.30
2023-04-28T14:25:37.716Z,15.32
2023-04-28T14:28:11.281Z,22.17
2023-04-28T14:32:23.142Z,5.68
2023-04-28T14:34:51.917Z,34.15
2023-04-28T14:37:18.814Z,28.83
2023-04-28T14:56:27.084Z,10.05
2023-04-28T15:00:54.240Z,11.25
2023-04-28T15:03:22.285Z,8.93
2023-04-28T15:10:58.313Z,10.60
2023-04-28T15:18:51.716Z,10.85
2023-04-28T15:27:01.238Z,10.77
2023-04-28T15:29:28.486Z,8.35
2023-04-28T15:31:57.898Z,9.20
2023-04-28T15:34:25.083Z,9.95
2023-04-28T15:36:53.907Z,8.52
2023-04-28T15:39:21.888Z,11.25
2023-04-28T15:41:48.765Z,10.10
2023-04-28T15:54:11.651Z,7.07
2023-04-28T16:01:43.167Z,12.45
2023-04-28T16:04:34.408Z,7.40
2023-04-28T16:14:42.393Z,9.02
2023-04-28T16:46:39.683Z,12.63
2023-04-28T16:49:06.819Z,16.27
2023-04-28T16:54:30.462Z,20.98
2023-04-28T16:56:57.822Z,22.23
2023-04-28T16:59:28.970Z,25.07
2023-04-28T17:02:00.729Z,21.23
2023-04-28T17:11:29.533Z,12.13
2023-04-28T17:14:38.892Z,23.26
2023-04-28T17:17:06.008Z,25.30
2023-04-28T17:26:11.800Z,23.49
2023-04-28T17:31:08.706Z,31.08
2023-04-28T17:33:42.471Z,21.73
2023-04-28T17:36:19.108Z,23.38
2023-04-28T17:43:27.273Z,23.85
2023-04-28T17:46:15.975Z,27.70
2023-04-28T17:48:43.288Z,29.23
2023-04-28T17:51:10.192Z,29.67
2023-04-28T17:53:41.182Z,25.05
2023-04-28T17:59:42.624Z,34.50
2023-04-28T18:10:54.408Z,24.87
2023-04-28T18:13:21.349Z,28.47
2023-04-28T18:15:48.304Z,28.43
2023-04-28T18:18:15.201Z,31.33
2023-04-28T18:20:42.932Z,31.93
2023-04-28T18:23:12.308Z,33.93
2023-04-28T18:25:49.042Z,25.80
2023-04-28T18:28:15.914Z,33.03
2023-04-28T18:30:42.773Z,28.70
2023-04-28T18:33:09.767Z,21.80
2023-04-28T18:35:37.067Z,29.77
2023-04-28T18:38:05.151Z,32.87
2023-04-28T18:40:37.720Z,31.07
2023-04-28T18:43:07.191Z,30.93
2023-04-28T18:45:35.778Z,24.77
2023-04-28T18:48:03.205Z,29.07
2023-04-28T18:50:30.720Z,26.23
2023-04-28T18:52:59.535Z,27.47
2023-04-28T18:55:27.486Z,23.10
2023-04-28T18:57:56.459Z,29.10
2023-04-28T19:00:49.845Z,29.20
2023-04-28T19:16:05.448Z,19.48
2023-04-28T19:18:42.196Z,26.74
2023-04-28T19:21:12.154Z,29.70
2023-04-28T19:25:15.226Z,30.65
2023-04-28T19:35:04.958Z,32.53
2023-04-28T19:37:32.388Z,35.97
2023-04-28T19:45:45.084Z,30.30
2023-04-28T19:53:01.132Z,33.95
2023-04-28T19:58:10.624Z,38.10
2023-04-28T20:06:33.626Z,33.17
2023-04-28T20:09:01.443Z,34.30
2023-04-28T20:11:29.740Z,37.10
2023-04-28T20:16:28.659Z,34.13
2023-04-28T20:20:53.177Z,29.85
2023-04-28T20:31:12.811Z,47.97
2023-04-28T20:41:54.744Z,54.45
2023-04-28T20:45:01.340Z,63.50
2023-04-28T20:48:55.726Z,56.13
2023-04-28T20:51:22.659Z,64.18
2023-04-28T20:53:49.507Z,62.47
2023-04-28T20:57:13.208Z,58.22
2023-04-28T21:00:11.401Z,66.20
2023-04-28T21:06:56.092Z,59.22
2023-04-28T21:30:22.032Z,49.35
2023-04-28T21:32:48.941Z,53.83
2023-04-28T21:35:16.402Z,56.63
2023-04-28T21:37:43.301Z,50.13
2023-04-28T21:40:10.496Z,49.60
2023-04-28T21:42:38.060Z,52.20
2023-04-28T21:45:28.812Z,45.10
2023-04-28T21:47:57.127Z,44.40
2023-04-28T21:50:24.067Z,54.70
2023-04-28T21:52:50.977Z,38.43
2023-04-28T21:55:17.988Z,36.47
2023-04-28T21:57:45.840Z,31.70
2023-04-28T22:00:13.103Z,32.97
2023-04-28T22:02:40.097Z,38.50
2023-04-28T22:05:07.281Z,37.93
2023-04-28T22:07:34.228Z,35.37
2023-04-28T22:10:01.231Z,32.27
2023-04-28T22:12:28.390Z,31.00
2023-04-28T22:14:55.290Z,29.13
2023-04-28T22:17:22.373Z,28.67
2023-04-28T22:22:43.149Z,34.37
2023-04-28T22:25:10.357Z,37.23
2023-04-28T22:27:37.518Z,43.70
2023-04-28T22:30:04.853Z,40.00
2023-04-28T22:36:58.147Z,37.47
2023-04-28T22:39:27.003Z,40.20
2023-04-28T22:41:54.016Z,35.77
2023-04-28T22:47:07.024Z,40.17
2023-04-28T22:49:34.016Z,51.87
2023-04-28T22:52:00.994Z,48.27
2023-04-28T22:54:27.965Z,51.00
2023-04-28T22:56:55.814Z,48.83
2023-04-28T22:59:22.680Z,48.57
2023-04-28T23:01:49.954Z,56.10
2023-04-28T23:04:17.832Z,48.50
2023-04-28T23:06:44.934Z,56.43
2023-04-28T23:09:11.860Z,56.30
2023-04-28T23:11:38.889Z,59.33
2023-04-28T23:14:05.793Z,60.77
2023-04-28T23:16:32.803Z,56.07
2023-04-28T23:18:59.861Z,55.93
2023-04-28T23:21:29.774Z,58.87
2023-04-28T23:23:56.644Z,62.47
2023-04-28T23:26:24.784Z,61.53
2023-04-28T23:28:52.153Z,60.83
2023-04-28T23:31:19.037Z,61.13
2023-04-28T23:33:45.908Z,56.83
2023-04-28T23:36:13.937Z,55.30
2023-04-28T23:38:40.843Z,45.53
2023-04-28T23:41:09.104Z,46.57
2023-04-28T23:43:36.393Z,48.53
2023-04-28T23:46:03.336Z,54.30
2023-04-28T23:48:30.224Z,50.50
2023-04-28T23:50:57.152Z,51.20
2023-04-28T23:53:24.376Z,45.57
2023-04-28T23:55:52.237Z,41.40
2023-04-28T23:58:19.116Z,42.37
